Time;durP1;ratioP1;P1;durP2;ratioP2;P2;SDS_P1;SDS_P2;PMS_P1;PMS_P2;Temp;Humidity;BMP_temperature;BMP_pressure;BME280_temperature;BME280_humidity;BME280_pressure;Samples;Min_cycle;Max_cycle;Signal;HPM_P1;HPM_P2
2021/03/27 00:02:19;;;;;;;11.40;7.25;;;11.70;1.00;;;;;;5030100;28;20270;-62
2021/03/27 00:04:56;;;;;;;10.30;8.35;;;11.60;1.00;;;;;;5036735;28;20548;-64
2021/03/27 00:07:29;;;;;;;9.45;7.60;;;11.50;1.00;;;;;;5035526;28;20600;-66
2021/03/27 00:10:09;;;;;;;9.85;7.20;;;11.40;1.00;;;;;;5037064;28;20578;-66
2021/03/27 00:12:40;;;;;;;11.15;8.30;;;11.40;1.00;;;;;;5037119;28;20189;-64
2021/03/27 00:15:26;;;;;;;10.98;7.90;;;11.50;1.00;;;;;;5037939;28;20186;-64
2021/03/27 00:18:20;;;;;;;13.77;9.20;;;11.50;1.00;;;;;;5036858;28;20186;-63
2021/03/27 00:20:55;;;;;;;9.32;7.90;;;11.50;1.00;;;;;;5036606;28;20654;-67
2021/03/27 00:23:27;;;;;;;11.90;8.40;;;11.40;1.00;;;;;;5036089;28;20213;-66
2021/03/27 00:26:00;;;;;;;11.57;8.75;;;11.20;1.00;;;;;;5036413;28;20650;-66
2021/03/27 00:28:35;;;;;;;9.05;7.45;;;11.10;1.00;;;;;;5035491;28;20170;-64
2021/03/27 00:31:22;;;;;;;13.77;8.48;;;11.10;1.00;;;;;;5018429;28;20182;-64
2021/03/27 00:34:05;;;;;;;10.10;8.23;;;10.90;1.00;;;;;;5035881;28;20192;-65
2021/03/27 00:36:38;;;;;;;12.02;7.10;;;10.90;50.50;;;;;;5035902;28;20182;-64
2021/03/27 00:39:33;;;;;;;8.82;7.78;;;10.90;45.00;;;;;;5035927;28;20488;-65
2021/03/27 00:42:03;;;;;;;8.82;7.10;;;10.80;99.90;;;;;;5035968;28;20528;-65
2021/03/27 00:44:53;;;;;;;9.80;7.32;;;10.80;99.90;;;;;;5034884;28;20275;-65
2021/03/27 00:47:22;;;;;;;20.75;14.88;;;10.90;93.10;;;;;;5034935;28;20579;-64
2021/03/27 00:49:56;;;;;;;17.98;10.02;;;11.00;83.60;;;;;;5034731;28;20202;-65
2021/03/27 00:52:23;;;;;;;11.68;7.85;;;11.00;23.90;;;;;;5035553;28;20181;-64
2021/03/27 00:55:05;;;;;;;11.00;8.93;;;11.10;1.00;;;;;;5035362;28;20178;-64
2021/03/27 00:57:35;;;;;;;9.75;7.88;;;11.10;1.00;;;;;;5035948;28;20251;-64
2021/03/27 01:00:13;;;;;;;9.55;7.82;;;11.10;1.00;;;;;;5035374;28;20197;-64
2021/03/27 01:02:45;;;;;;;9.40;7.35;;;10.90;1.00;;;;;;5035368;28;20603;-64
2021/03/27 01:05:15;;;;;;;8.70;7.70;;;10.90;35.20;;;;;;5035121;28;20527;-64
2021/03/27 01:07:41;;;;;;;12.68;7.32;;;10.90;90.40;;;;;;5035124;28;20193;-64
2021/03/27 01:10:32;;;;;;;9.38;6.85;;;10.90;99.90;;;;;;5035235;28;20623;-65
2021/03/27 01:13:02;;;;;;;11.80;7.53;;;11.00;34.30;;;;;;5035398;28;20182;-65
2021/03/27 01:15:32;;;;;;;10.77;7.28;;;11.10;9.60;;;;;;5034916;28;20178;-66
2021/03/27 01:18:01;;;;;;;13.27;7.85;;;11.00;1.00;;;;;;5035203;28;20225;-66
2021/03/27 01:20:38;;;;;;;10.43;7.78;;;11.10;1.00;;;;;;5034852;28;20232;-67
2021/03/27 01:23:04;;;;;;;12.40;10.35;;;10.90;44.50;;;;;;5034841;28;20205;-67
2021/03/27 01:25:34;;;;;;;9.30;7.60;;;10.90;68.80;;;;;;5034973;28;20197;-67
2021/03/27 01:28:20;;;;;;;9.57;7.43;;;10.90;69.00;;;;;;5034917;28;20182;-66
2021/03/27 01:31:22;;;;;;;11.85;7.65;;;10.80;61.80;;;;;;5034317;28;20174;-66
2021/03/27 01:33:58;;;;;;;18.95;8.88;;;10.70;99.90;;;;;;5035360;28;20214;-65
2021/03/27 01:36:49;;;;;;;9.32;7.30;;;10.70;99.90;;;;;;5034885;28;20181;-64
2021/03/27 01:39:19;;;;;;;9.50;7.40;;;10.50;99.90;;;;;;5034651;28;20186;-64
2021/03/27 01:42:09;;;;;;;10.90;8.88;;;10.50;99.90;;;;;;5034788;28;20301;-65
2021/03/27 01:44:53;;;;;;;12.77;7.97;;;10.50;99.90;;;;;;5034424;28;20292;-65
2021/03/27 01:47:32;;;;;;;8.82;7.45;;;10.30;99.90;;;;;;5033741;28;20177;-65
2021/03/27 01:50:20;;;;;;;10.10;7.65;;;10.20;1.00;;;;;;5034360;28;20257;-65
2021/03/27 01:53:00;;;;;;;9.95;7.55;;;10.20;1.00;;;;;;5034541;28;20276;-65
2021/03/27 01:56:04;;;;;;;9.30;7.38;;;10.20;1.00;;;;;;5034233;28;20173;-65
2021/03/27 01:58:51;;;;;;;10.13;7.22;;;10.00;1.00;;;;;;5034324;28;20204;-63
2021/03/27 02:01:26;;;;;;;9.55;8.10;;;10.10;1.00;;;;;;5034295;28;20284;-64
2021/03/27 02:04:13;;;;;;;9.82;7.57;;;10.00;1.00;;;;;;5034128;28;20173;-63
2021/03/27 02:07:01;;;;;;;9.07;6.88;;;10.10;1.00;;;;;;5033106;28;20190;-63
2021/03/27 02:09:43;;;;;;;9.70;6.95;;;10.10;1.00;;;;;;5035385;28;20170;-66
2021/03/27 02:12:21;;;;;;;8.85;7.35;;;10.00;1.00;;;;;;5035518;28;20607;-64
2021/03/27 02:14:51;;;;;;;9.23;6.60;;;9.90;1.00;;;;;;5033781;28;20688;-64
2021/03/27 02:17:35;;;;;;;9.55;6.85;;;9.90;1.00;;;;;;5034081;28;20228;-64
2021/03/27 02:20:11;;;;;;;10.23;7.80;;;9.90;1.00;;;;;;5032974;28;20239;-64
2021/03/27 02:22:58;;;;;;;10.13;7.07;;;9.80;23.20;;;;;;5034009;28;20185;-64
2021/03/27 02:25:42;;;;;;;10.82;6.70;;;9.80;92.10;;;;;;5033859;28;20187;-64
2021/03/27 02:28:28;;;;;;;13.23;7.25;;;9.70;99.90;;;;;;5034068;28;20189;-64
2021/03/27 02:31:18;;;;;;;9.57;7.68;;;9.70;99.90;;;;;;5033969;28;20205;-64
2021/03/27 02:33:54;;;;;;;10.57;7.38;;;9.60;99.90;;;;;;5033366;28;20219;-64
2021/03/27 02:36:34;;;;;;;10.05;6.70;;;9.70;99.90;;;;;;5034007;28;20196;-64
2021/03/27 02:39:36;;;;;;;8.90;6.80;;;9.70;99.90;;;;;;5033768;28;20312;-64
2021/03/27 02:42:32;;;;;;;13.10;7.55;;;9.80;99.90;;;;;;5035294;28;20923;-64
2021/03/27 02:45:25;;;;;;;10.30;7.10;;;9.80;99.90;;;;;;5033451;28;20181;-64
2021/03/27 02:48:14;;;;;;;12.20;7.60;;;9.80;99.90;;;;;;5033628;28;20517;-64
2021/03/27 02:51:08;;;;;;;10.95;7.78;;;9.80;99.90;;;;;;5033701;28;20268;-64
2021/03/27 02:53:39;;;;;;;9.63;7.10;;;9.80;99.90;;;;;;5033246;28;20235;-64
2021/03/27 02:56:42;;;;;;;8.02;6.80;;;9.90;99.40;;;;;;5033525;28;20177;-64
2021/03/27 02:59:26;;;;;;;8.15;6.65;;;9.90;25.60;;;;;;5033715;28;20524;-64
2021/03/27 03:02:13;;;;;;;8.32;6.38;;;9.90;48.50;;;;;;5033542;28;20210;-66
2021/03/27 03:05:04;;;;;;;8.80;5.97;;;9.90;1.00;;;;;;5033387;28;20206;-67
2021/03/27 03:07:37;;;;;;;9.38;7.68;;;10.00;1.00;;;;;;5033455;28;20201;-67
2021/03/27 03:10:17;;;;;;;9.30;7.22;;;10.10;1.00;;;;;;5033459;28;20202;-66
2021/03/27 03:12:57;;;;;;;10.02;7.22;;;10.00;1.00;;;;;;5033448;28;20244;-66
2021/03/27 03:15:42;;;;;;;9.38;7.35;;;9.80;1.00;;;;;;5032112;28;20572;-66
2021/03/27 03:18:31;;;;;;;7.63;6.82;;;9.90;1.00;;;;;;5033336;28;20173;-66
2021/03/27 03:21:03;;;;;;;7.97;5.93;;;9.90;1.00;;;;;;5033396;28;20650;-65
2021/03/27 03:23:42;;;;;;;8.75;7.25;;;9.90;1.00;;;;;;5033028;28;20205;-67
2021/03/27 03:26:28;;;;;;;9.43;6.75;;;10.00;1.00;;;;;;5033316;28;20170;-67
2021/03/27 03:29:15;;;;;;;9.30;6.90;;;10.20;1.00;;;;;;5033274;28;20177;-66
2021/03/27 03:31:53;;;;;;;10.80;7.03;;;10.10;1.00;;;;;;5033658;28;20686;-66
2021/03/27 03:34:49;;;;;;;7.10;6.40;;;10.40;1.00;;;;;;5033267;28;20178;-67
2021/03/27 03:37:34;;;;;;;10.20;6.78;;;10.50;99.90;;;;;;5033178;28;20710;-66
2021/03/27 03:40:19;;;;;;;9.60;7.20;;;10.60;99.90;;;;;;5033246;28;20186;-66
2021/03/27 03:43:26;;;;;;;6.50;5.82;;;10.50;99.90;;;;;;5033033;28;20182;-66
2021/03/27 03:46:11;;;;;;;9.70;6.63;;;10.50;99.90;;;;;;5042916;28;20212;-65
2021/03/27 03:49:03;;;;;;;8.93;6.30;;;10.50;99.90;;;;;;5031958;28;20181;-66
2021/03/27 03:51:47;;;;;;;10.05;6.80;;;10.50;99.90;;;;;;5031881;28;20280;-65
2021/03/27 03:54:23;;;;;;;8.73;5.40;;;10.50;99.90;;;;;;5035430;28;20185;-66
2021/03/27 03:57:12;;;;;;;12.63;8.48;;;10.70;99.90;;;;;;5036598;28;20193;-65
2021/03/27 04:00:13;;;;;;;9.13;6.45;;;10.70;99.90;;;;;;5036918;28;20173;-66
2021/03/27 04:02:48;;;;;;;6.97;5.75;;;10.80;99.90;;;;;;5054514;28;20199;-66
2021/03/27 04:05:34;;;;;;;7.22;6.32;;;10.80;1.00;;;;;;5035327;28;20198;-66
2021/03/27 04:08:09;;;;;;;10.20;6.65;;;10.60;1.00;;;;;;5036536;28;20271;-66
2021/03/27 04:10:37;;;;;;;9.98;6.75;;;10.60;99.90;;;;;;5036501;28;20256;-67
2021/03/27 04:13:11;;;;;;;8.20;6.45;;;10.70;99.90;;;;;;5036417;28;20305;-66
2021/03/27 04:16:04;;;;;;;8.75;6.63;;;10.70;29.00;;;;;;5036346;28;20188;-66
2021/03/27 04:18:34;;;;;;;8.43;7.18;;;10.30;1.00;;;;;;5036468;28;20178;-64
2021/03/27 04:21:17;;;;;;;9.15;7.22;;;9.80;1.00;;;;;;5036373;28;20217;-65
2021/03/27 04:23:45;;;;;;;10.68;7.70;;;9.40;1.00;;;;;;5036210;28;20193;-64
2021/03/27 04:26:20;;;;;;;9.73;8.13;;;9.10;1.00;;;;;;5036362;28;20185;-65
2021/03/27 04:29:10;;;;;;;12.05;7.65;;;8.80;35.60;;;;;;5036372;28;20187;-65
2021/03/27 04:31:40;;;;;;;5.75;5.18;;;8.70;99.90;;;;;;5034239;28;20193;-65
2021/03/27 04:34:11;;;;;;;5.78;3.35;;;8.20;99.90;;;;;;5036508;28;20177;-65
2021/03/27 04:36:39;;;;;;;5.05;3.10;;;8.10;99.90;;;;;;5036348;28;20265;-65
2021/03/27 04:39:25;;;;;;;2.97;2.58;;;7.90;99.90;;;;;;5036146;28;20617;-65
2021/03/27 04:42:16;;;;;;;3.60;2.13;;;7.70;99.90;;;;;;5035851;28;20205;-65
2021/03/27 04:45:09;;;;;;;4.95;3.28;;;7.50;99.90;;;;;;5035551;28;20195;-65
2021/03/27 04:47:39;;;;;;;3.05;2.45;;;7.40;99.90;;;;;;5038037;28;20201;-66
2021/03/27 04:50:22;;;;;;;2.10;1.55;;;7.40;99.90;;;;;;5035859;28;20187;-65
2021/03/27 04:53:28;;;;;;;1.85;1.40;;;7.40;99.90;;;;;;5035645;28;20193;-66
2021/03/27 04:56:04;;;;;;;2.72;1.67;;;7.30;99.90;;;;;;5034778;28;20187;-65
2021/03/27 04:58:48;;;;;;;3.03;2.00;;;7.20;99.90;;;;;;5035535;28;20518;-65
2021/03/27 05:01:17;;;;;;;2.53;1.75;;;7.10;99.90;;;;;;5035322;28;20224;-66
2021/03/27 05:04:02;;;;;;;3.65;1.80;;;7.00;99.90;;;;;;5034611;28;20500;-65
2021/03/27 05:06:39;;;;;;;2.00;1.80;;;6.90;99.90;;;;;;5035517;28;20618;-66
2021/03/27 05:09:31;;;;;;;1.55;1.45;;;6.80;99.90;;;;;;5035555;28;20181;-65
2021/03/27 05:12:02;;;;;;;1.55;1.23;;;6.70;99.90;;;;;;5034396;28;20298;-65
2021/03/27 05:14:53;;;;;;;1.98;1.33;;;6.40;99.90;;;;;;5034994;28;20195;-65
2021/03/27 05:17:43;;;;;;;1.58;1.25;;;6.40;99.90;;;;;;5035324;28;20185;-64
2021/03/27 05:20:24;;;;;;;2.85;1.40;;;6.30;99.90;;;;;;5035163;28;20267;-64
2021/03/27 05:23:01;;;;;;;2.83;1.65;;;6.30;99.90;;;;;;5035032;28;20188;-64
2021/03/27 05:25:45;;;;;;;1.73;1.00;;;6.30;99.90;;;;;;5034921;28;20183;-65
2021/03/27 05:28:48;;;;;;;1.00;1.00;;;6.30;99.90;;;;;;5034995;28;20251;-65
2021/03/27 05:32:03;;;;;;;2.45;1.45;;;6.50;99.90;;;;;;5033776;28;20230;-65
2021/03/27 05:34:36;;;;;;;1.27;1.05;;;6.40;99.90;;;;;;5052593;28;20549;-65
2021/03/27 05:37:20;;;;;;;1.75;1.58;;;6.40;99.90;;;;;;5052954;28;20200;-65
2021/03/27 05:40:10;;;;;;;3.25;1.63;;;6.40;99.90;;;;;;5039850;28;20279;-64
2021/03/27 05:43:03;;;;;;;1.90;1.48;;;6.50;99.90;;;;;;5033603;28;20208;-64
2021/03/27 05:45:37;;;;;;;2.20;1.60;;;6.60;99.90;;;;;;5034380;28;20264;-65
2021/03/27 05:48:29;;;;;;;2.30;2.10;;;6.60;99.90;;;;;;5034704;28;20185;-65
2021/03/27 05:51:23;;;;;;;2.05;1.77;;;6.70;99.90;;;;;;5034441;28;20214;-64
2021/03/27 05:54:00;;;;;;;2.40;1.95;;;6.70;99.90;;;;;;5034125;28;20185;-64
2021/03/27 05:56:34;;;;;;;4.50;2.13;;;6.80;99.90;;;;;;5034467;28;20180;-65
2021/03/27 05:59:32;;;;;;;2.92;2.45;;;6.70;99.90;;;;;;5033318;28;20207;-65
2021/03/27 06:02:05;;;;;;;3.53;2.20;;;6.70;99.90;;;;;;5034264;28;20307;-64
2021/03/27 06:04:53;;;;;;;3.50;2.50;;;6.70;99.90;;;;;;5033252;28;20221;-65
2021/03/27 06:08:05;;;;;;;2.40;2.05;;;6.80;99.90;;;;;;5033052;28;20231;-65
2021/03/27 06:11:09;;;;;;;3.38;2.60;;;6.80;99.90;;;;;;5034070;28;20172;-64
2021/03/27 06:14:04;;;;;;;2.45;1.88;;;6.70;99.90;;;;;;5033895;28;20190;-65
2021/03/27 06:16:47;;;;;;;2.60;2.28;;;6.70;99.90;;;;;;5034017;28;20184;-65
2021/03/27 06:19:50;;;;;;;4.43;4.05;;;6.80;99.90;;;;;;5049737;28;20690;-65
2021/03/27 06:22:28;;;;;;;6.50;3.28;;;6.80;99.90;;;;;;5033939;28;20276;-64
2021/03/27 06:25:01;;;;;;;3.85;3.00;;;7.00;99.90;;;;;;5033810;28;20181;-64
2021/03/27 06:27:41;;;;;;;2.65;2.33;;;6.90;99.90;;;;;;5032957;28;20200;-64
2021/03/27 06:30:24;;;;;;;5.75;2.90;;;6.90;99.90;;;;;;5033855;28;20177;-62
2021/03/27 06:33:20;;;;;;;3.38;2.60;;;6.90;99.90;;;;;;5032635;28;20275;-64
2021/03/27 06:35:48;;;;;;;3.53;2.60;;;7.00;99.90;;;;;;5033677;28;20712;-64
2021/03/27 06:38:55;;;;;;;3.38;2.47;;;6.90;99.90;;;;;;5033797;28;20217;-65
2021/03/27 06:41:48;;;;;;;5.05;3.22;;;7.00;99.90;;;;;;5033494;28;20556;-63
2021/03/27 06:44:32;;;;;;;5.78;3.97;;;7.10;99.90;;;;;;5033436;28;20177;-63
2021/03/27 06:47:25;;;;;;;5.10;3.67;;;7.00;99.90;;;;;;5033673;28;20265;-64
2021/03/27 06:50:02;;;;;;;5.88;3.70;;;6.90;99.90;;;;;;5033680;28;20272;-64
2021/03/27 06:52:45;;;;;;;6.10;3.28;;;6.90;99.90;;;;;;5033512;28;20512;-63
2021/03/27 06:55:40;;;;;;;6.10;5.20;;;7.00;99.90;;;;;;5033369;28;20173;-65
2021/03/27 06:58:20;;;;;;;4.40;3.95;;;6.90;99.90;;;;;;5033576;28;20243;-63
2021/03/27 07:00:46;;;;;;;6.32;4.78;;;6.90;99.90;;;;;;5034087;28;20204;-66
2021/03/27 07:03:30;;;;;;;6.83;5.53;;;7.20;99.90;;;;;;5033393;28;20177;-63
2021/03/27 07:06:22;;;;;;;7.53;4.10;;;7.20;99.90;;;;;;5033523;28;20170;-63
2021/03/27 07:09:00;;;;;;;6.15;5.07;;;7.10;17.30;;;;;;5033552;28;20181;-62
2021/03/27 07:11:40;;;;;;;6.43;4.75;;;7.20;7.60;;;;;;5033590;28;20525;-64
2021/03/27 07:14:27;;;;;;;5.85;4.90;;;7.20;24.20;;;;;;5033231;28;20199;-63
2021/03/27 07:17:04;;;;;;;9.00;5.07;;;7.30;23.10;;;;;;5033607;28;20181;-65
2021/03/27 07:20:08;;;;;;;6.63;4.90;;;7.50;31.00;;;;;;5034369;28;20189;-63
2021/03/27 07:23:00;;;;;;;8.15;5.30;;;7.40;1.00;;;;;;5034909;28;20227;-64
2021/03/27 07:26:01;;;;;;;8.75;4.75;;;7.50;1.00;;;;;;5035001;28;20182;-64
2021/03/27 07:28:49;;;;;;;8.10;5.75;;;7.60;1.00;;;;;;5038354;28;20264;-64
2021/03/27 07:31:26;;;;;;;7.75;5.45;;;7.70;1.00;;;;;;5040405;28;20204;-63
2021/03/27 07:34:18;;;;;;;7.88;5.53;;;7.60;1.00;;;;;;5038395;28;20631;-63
2021/03/27 07:37:25;;;;;;;7.03;6.10;;;7.70;1.00;;;;;;5037645;28;20571;-63
2021/03/27 07:40:09;;;;;;;7.28;5.88;;;7.90;1.00;;;;;;5037068;28;20196;-65
2021/03/27 07:42:41;;;;;;;7.55;6.43;;;8.00;1.00;;;;;;5036217;28;20232;-64
2021/03/27 07:45:40;;;;;;;14.05;6.97;;;8.10;1.00;;;;;;5037198;28;20243;-64
2021/03/27 07:48:23;;;;;;;9.20;6.05;;;8.10;1.00;;;;;;5037170;28;20186;-64
2021/03/27 07:51:16;;;;;;;8.35;6.95;;;8.10;1.00;;;;;;5036787;28;20234;-65
2021/03/27 07:53:56;;;;;;;8.07;5.90;;;7.90;1.00;;;;;;5037603;28;20204;-63
2021/03/27 07:56:40;;;;;;;7.68;6.88;;;7.90;1.00;;;;;;5038209;28;20199;-62
2021/03/27 07:59:40;;;;;;;9.32;7.00;;;7.90;1.00;;;;;;5037420;28;20190;-62
2021/03/27 08:02:35;;;;;;;5.25;4.10;;;8.20;1.00;;;;;;5036941;28;20233;-63
2021/03/27 08:05:19;;;;;;;3.22;2.63;;;7.90;1.00;;;;;;5037199;28;20185;-64
2021/03/27 08:08:18;;;;;;;4.05;3.05;;;7.50;1.00;;;;;;5037870;28;20253;-62
2021/03/27 08:11:04;;;;;;;11.02;6.32;;;7.90;1.00;;;;;;5037955;28;20210;-65
2021/03/27 08:13:48;;;;;;;14.32;8.20;;;8.10;1.00;;;;;;5036847;28;20644;-64
2021/03/27 08:16:48;;;;;;;16.42;10.95;;;8.30;1.00;;;;;;5038086;28;20192;-61
2021/03/27 08:19:51;;;;;;;7.40;5.95;;;9.00;99.90;;;;;;5032233;28;20224;-64
2021/03/27 08:22:39;;;;;;;10.38;5.47;;;9.00;99.90;;;;;;5031433;28;20211;-64
2021/03/27 08:25:18;;;;;;;8.48;5.68;;;9.00;1.00;;;;;;5030237;28;20311;-67
2021/03/27 08:27:49;;;;;;;8.40;5.80;;;8.80;1.00;;;;;;5030890;28;20193;-67
2021/03/27 08:30:34;;;;;;;13.95;7.43;;;8.60;1.00;;;;;;5036618;28;20196;-65
2021/03/27 08:33:34;;;;;;;7.72;6.68;;;8.70;1.00;;;;;;5036451;28;20186;-68
2021/03/27 08:36:11;;;;;;;9.05;6.80;;;8.80;1.00;;;;;;5036668;28;20268;-68
2021/03/27 08:38:55;;;;;;;8.82;4.95;;;8.80;1.00;;;;;;5035186;28;20185;-66
2021/03/27 08:41:34;;;;;;;9.57;6.30;;;8.80;1.00;;;;;;5035028;28;20291;-67
2021/03/27 08:44:31;;;;;;;10.25;6.07;;;8.70;1.00;;;;;;5034019;28;20235;-65
2021/03/27 08:47:18;;;;;;;8.38;5.70;;;8.80;99.90;;;;;;5035937;28;20589;-66
2021/03/27 08:49:49;;;;;;;8.82;5.60;;;8.80;1.00;;;;;;5036085;28;20189;-65
2021/03/27 08:52:33;;;;;;;7.90;5.35;;;8.80;1.00;;;;;;5035648;28;20509;-65
2021/03/27 08:55:27;;;;;;;11.38;6.03;;;9.00;1.00;;;;;;5035539;28;20265;-65
2021/03/27 08:58:29;;;;;;;8.10;5.22;;;9.00;1.00;;;;;;5024703;28;20194;-65
2021/03/27 09:01:13;;;;;;;8.88;6.65;;;9.20;99.90;;;;;;5035525;28;20559;-64
2021/03/27 09:03:57;;;;;;;10.02;5.57;;;9.30;1.00;;;;;;5035149;28;20177;-64
2021/03/27 09:06:35;;;;;;;7.45;5.53;;;9.50;1.00;;;;;;5035438;28;20220;-64
2021/03/27 09:09:31;;;;;;;8.40;5.40;;;9.40;99.90;;;;;;5034503;28;20199;-67
2021/03/27 09:12:11;;;;;;;9.10;5.57;;;9.20;99.90;;;;;;5026470;28;20197;-65
2021/03/27 09:15:02;;;;;;;9.95;6.10;;;9.00;99.90;;;;;;5024805;28;20190;-66
2021/03/27 09:18:05;;;;;;;6.43;5.70;;;8.90;1.00;;;;;;5025526;28;22096;-67
2021/03/27 09:20:39;;;;;;;7.65;5.95;;;8.90;99.90;;;;;;5029634;28;20595;-68
2021/03/27 09:23:36;;;;;;;9.25;6.25;;;9.00;99.90;;;;;;5029058;28;20193;-66
2021/03/27 09:26:46;;;;;;;9.27;4.68;;;9.30;1.00;;;;;;5034244;28;20474;-69
2021/03/27 09:29:33;;;;;;;8.70;5.00;;;9.50;1.00;;;;;;5035272;28;20195;-67
2021/03/27 09:32:09;;;;;;;12.90;9.55;;;9.50;99.90;;;;;;5033367;28;20182;-68
2021/03/27 09:35:10;;;;;;;7.00;4.20;;;9.40;99.90;;;;;;5034705;28;20694;-64
2021/03/27 09:38:09;;;;;;;6.72;5.25;;;9.20;1.00;;;;;;5034621;28;20700;-64
2021/03/27 09:41:04;;;;;;;5.18;4.00;;;9.40;99.90;;;;;;5034544;28;20193;-64
2021/03/27 09:43:40;;;;;;;6.53;4.00;;;9.30;1.00;;;;;;5034355;28;20185;-64
2021/03/27 09:46:38;;;;;;;5.55;3.45;;;9.50;99.90;;;;;;5034548;28;20181;-65
2021/03/27 09:49:30;;;;;;;5.78;3.70;;;9.20;99.90;;;;;;5033691;28;20178;-65
2021/03/27 09:52:26;;;;;;;7.45;4.20;;;9.10;1.00;;;;;;5033933;28;20178;-62
2021/03/27 09:55:07;;;;;;;6.40;4.45;;;9.60;1.00;;;;;;5033901;28;20189;-62
2021/03/27 09:57:57;;;;;;;9.07;4.80;;;10.10;99.90;;;;;;5033179;28;20235;-62
2021/03/27 10:00:50;;;;;;;9.68;4.43;;;10.30;99.90;;;;;;5034305;28;20521;-61
2021/03/27 10:03:40;;;;;;;14.70;5.30;;;10.00;72.70;;;;;;5033966;28;20221;-64
2021/03/27 10:06:33;;;;;;;6.82;4.30;;;9.80;99.90;;;;;;5031094;28;20189;-61
2021/03/27 10:09:05;;;;;;;5.15;4.43;;;9.80;99.90;;;;;;5034021;28;20177;-69
2021/03/27 10:11:34;;;;;;;7.72;5.00;;;9.50;1.00;;;;;;5034095;28;20247;-64
2021/03/27 10:14:13;;;;;;;6.20;4.47;;;9.30;1.00;;;;;;5032783;28;20477;-65
2021/03/27 10:16:52;;;;;;;4.65;3.85;;;9.20;99.90;;;;;;5034178;28;20177;-63
2021/03/27 10:19:18;;;;;;;8.30;6.10;;;8.80;99.90;;;;;;5034023;28;20264;-62
2021/03/27 10:21:59;;;;;;;6.30;4.40;;;8.30;1.00;;;;;;5032935;28;20315;-62
2021/03/27 10:24:48;;;;;;;6.40;3.97;;;7.90;1.00;;;;;;5033674;28;20173;-62
2021/03/27 10:27:20;;;;;;;5.30;3.80;;;8.00;99.90;;;;;;5034799;28;20196;-65
2021/03/27 10:30:04;;;;;;;5.05;3.88;;;8.10;1.00;;;;;;5033810;28;20205;-62
2021/03/27 10:32:30;;;;;;;4.22;3.25;;;8.30;99.90;;;;;;5035543;28;20557;-62
2021/03/27 10:35:16;;;;;;;4.30;2.87;;;8.30;56.30;;;;;;5033691;28;20185;-60
2021/03/27 10:37:44;;;;;;;4.05;2.97;;;8.60;1.00;;;;;;5034494;28;20209;-65
2021/03/27 10:40:34;;;;;;;2.63;2.22;;;8.50;1.00;;;;;;5029514;28;20244;-63
2021/03/27 10:43:22;;;;;;;8.18;3.15;;;8.60;99.90;;;;;;5029543;28;20225;-63
2021/03/27 10:46:16;;;;;;;5.57;3.15;;;8.70;23.00;;;;;;5033117;28;20379;-63
2021/03/27 10:48:41;;;;;;;3.42;2.15;;;8.70;1.00;;;;;;5032804;28;20173;-62
2021/03/27 10:51:36;;;;;;;2.47;2.20;;;8.50;99.90;;;;;;5032746;28;20192;-60
2021/03/27 10:54:32;;;;;;;2.10;1.85;;;8.70;1.00;;;;;;5031806;28;20519;-63
2021/03/27 10:57:01;;;;;;;3.83;1.80;;;8.90;1.00;;;;;;5031219;28;20508;-61
2021/03/27 10:59:34;;;;;;;3.40;1.40;;;9.00;99.90;;;;;;5032062;28;20171;-62
2021/03/27 11:02:18;;;;;;;1.75;1.30;;;8.70;99.90;;;;;;5031916;28;20248;-61
2021/03/27 11:05:12;;;;;;;3.38;1.65;;;8.40;1.00;;;;;;5035839;28;20207;-63
2021/03/27 11:07:56;;;;;;;4.38;2.60;;;8.10;99.90;;;;;;5036402;28;20641;-60
2021/03/27 11:10:40;;;;;;;3.10;2.22;;;8.00;1.00;;;;;;5037579;28;20213;-61
2021/03/27 11:13:05;;;;;;;3.25;2.38;;;8.20;99.90;;;;;;5037503;28;20265;-63
2021/03/27 11:15:52;;;;;;;4.37;2.57;;;8.50;90.90;;;;;;5037430;28;20280;-63
2021/03/27 11:18:39;;;;;;;4.13;2.15;;;8.60;1.00;;;;;;5037601;28;20204;-61
2021/03/27 11:21:10;;;;;;;4.00;2.13;;;8.50;1.00;;;;;;5037576;28;20208;-61
2021/03/27 11:24:01;;;;;;;3.20;2.30;;;8.10;1.00;;;;;;5036984;28;20568;-59
2021/03/27 11:26:48;;;;;;;6.65;2.22;;;8.10;1.00;;;;;;5037327;28;20197;-60
2021/03/27 11:29:44;;;;;;;5.00;2.33;;;8.80;1.00;;;;;;5033125;28;20225;-61
2021/03/27 11:32:31;;;;;;;6.47;1.85;;;9.00;1.00;;;;;;5036835;28;20212;-64
2021/03/27 11:35:14;;;;;;;2.65;1.98;;;9.20;1.00;;;;;;5036944;28;20192;-68
2021/03/27 11:37:46;;;;;;;2.33;1.90;;;9.20;1.00;;;;;;5035658;28;20283;-68
2021/03/27 11:40:47;;;;;;;5.65;2.60;;;9.40;1.00;;;;;;5036048;28;20186;-68
2021/03/27 11:43:44;;;;;;;3.70;2.40;;;9.60;99.90;;;;;;5024587;28;20204;-69
2021/03/27 11:46:18;;;;;;;5.40;2.20;;;9.60;1.00;;;;;;5037167;28;20213;-69
2021/03/27 11:49:06;;;;;;;4.35;2.05;;;9.70;1.00;;;;;;5036812;28;20182;-70
2021/03/27 11:51:55;;;;;;;1.98;1.60;;;9.80;99.90;;;;;;5036796;28;20188;-70
2021/03/27 11:54:49;;;;;;;4.70;2.40;;;9.50;99.90;;;;;;5035689;28;20524;-67
2021/03/27 11:57:31;;;;;;;3.05;2.00;;;8.90;99.90;;;;;;5037285;28;20181;-65
2021/03/27 12:03:27;;;;;;;3.35;1.00;;;6.60;1.00;;;;;;5036978;28;20268;-62
2021/03/27 12:06:33;;;;;;;6.03;1.23;;;5.70;99.90;;;;;;5036497;28;20174;-67
2021/03/27 12:09:11;;;;;;;3.90;1.60;;;5.60;1.00;;;;;;5034657;28;20196;-63
2021/03/27 12:11:51;;;;;;;11.48;5.10;;;5.70;1.00;;;;;;5033451;28;20208;-61
2021/03/27 12:14:34;;;;;;;8.30;4.28;;;5.80;1.00;;;;;;5034980;28;20194;-65
2021/03/27 12:17:21;;;;;;;4.28;1.80;;;5.90;1.00;;;;;;5036542;28;20181;-64
2021/03/27 12:20:02;;;;;;;6.20;1.50;;;6.10;1.00;;;;;;5036251;28;20181;-67
2021/03/27 12:22:43;;;;;;;4.10;1.70;;;6.30;99.90;;;;;;5036546;28;20205;-62
2021/03/27 12:25:12;;;;;;;6.32;1.58;;;6.60;99.90;;;;;;5036276;28;20757;-61
2021/03/27 12:27:43;;;;;;;1.80;1.10;;;6.60;99.90;;;;;;5036951;28;20185;-62
2021/03/27 12:30:23;;;;;;;2.38;1.20;;;6.60;51.80;;;;;;5036402;28;20161;-67
2021/03/27 12:32:58;;;;;;;4.03;1.30;;;6.80;99.90;;;;;;5035818;28;20184;-67
2021/03/27 12:35:27;;;;;;;7.97;1.88;;;7.00;1.00;;;;;;5035789;28;20570;-67
2021/03/27 12:38:07;;;;;;;3.08;1.50;;;7.20;33.40;;;;;;5035994;28;20186;-62
2021/03/27 12:40:32;;;;;;;8.02;1.67;;;7.60;1.00;;;;;;5035844;28;20641;-65
2021/03/27 12:43:17;;;;;;;5.20;1.50;;;8.00;99.90;;;;;;5035871;28;20185;-69
2021/03/27 12:46:07;;;;;;;5.85;1.75;;;8.30;1.00;;;;;;5035722;28;20228;-68
2021/03/27 12:48:58;;;;;;;5.32;2.00;;;8.90;99.90;;;;;;5016186;28;20239;-70
2021/03/27 12:52:05;;;;;;;5.90;1.73;;;9.00;1.00;;;;;;5035525;28;20193;-70
2021/03/27 12:54:31;;;;;;;6.43;2.53;;;8.90;1.00;;;;;;5034543;28;20182;-69
2021/03/27 12:57:40;;;;;;;4.93;2.00;;;8.80;99.90;;;;;;5034525;28;20204;-69
2021/03/27 13:00:30;;;;;;;3.35;1.83;;;8.90;1.00;;;;;;5035498;28;20174;-65
2021/03/27 13:03:20;;;;;;;3.05;1.70;;;9.00;1.00;;;;;;5036235;28;20613;-64
2021/03/27 13:05:51;;;;;;;10.93;2.30;;;9.10;1.00;;;;;;5035716;28;20618;-66
2021/03/27 13:08:20;;;;;;;7.72;2.35;;;9.30;1.00;;;;;;5035837;28;20505;-68
2021/03/27 13:10:49;;;;;;;7.30;2.10;;;9.30;1.00;;;;;;5034645;28;20182;-65
2021/03/27 13:13:34;;;;;;;4.90;1.80;;;9.10;1.00;;;;;;5035349;28;20182;-65
2021/03/27 13:16:18;;;;;;;4.75;2.08;;;8.80;1.00;;;;;;5035235;28;20220;-67
2021/03/27 13:19:45;;;;;;;4.78;2.35;;;8.70;1.00;;;;;;5035189;28;20182;-70
2021/03/27 13:22:31;;;;;;;7.40;2.10;;;8.40;99.90;;;;;;4990458;28;20638;-68
2021/03/27 13:25:19;;;;;;;11.13;2.83;;;8.40;99.90;;;;;;5033169;28;20188;-67
2021/03/27 13:28:03;;;;;;;7.70;2.42;;;8.40;43.70;;;;;;5035042;28;20211;-62
2021/03/27 13:30:48;;;;;;;3.42;2.30;;;8.40;1.00;;;;;;5035195;28;20516;-68
2021/03/27 13:33:30;;;;;;;6.30;2.15;;;8.50;33.20;;;;;;5033665;28;20397;-65
2021/03/27 13:36:05;;;;;;;5.07;2.20;;;8.80;1.00;;;;;;5033712;28;20616;-65
2021/03/27 13:38:56;;;;;;;3.70;2.30;;;9.10;99.90;;;;;;5034752;28;20215;-64
2021/03/27 13:41:33;;;;;;;4.32;2.08;;;9.30;1.00;;;;;;5035271;28;20630;-64
2021/03/27 13:44:12;;;;;;;4.97;2.03;;;9.10;1.00;;;;;;5034180;28;20632;-64
2021/03/27 13:47:04;;;;;;;9.88;2.40;;;8.80;99.90;;;;;;5033662;28;20188;-65
2021/03/27 13:49:37;;;;;;;5.78;2.38;;;8.70;1.00;;;;;;5034360;28;20668;-64
2021/03/27 13:52:20;;;;;;;7.40;2.95;;;8.30;1.00;;;;;;5034648;28;20260;-64
2021/03/27 13:55:14;;;;;;;3.33;1.80;;;8.30;99.90;;;;;;5034093;28;20178;-66
2021/03/27 13:57:56;;;;;;;8.18;2.50;;;8.70;99.90;;;;;;5034272;28;20185;-65
2021/03/27 14:00:29;;;;;;;8.40;3.13;;;9.00;1.00;;;;;;5033547;28;20192;-65
2021/03/27 14:03:27;;;;;;;5.90;2.70;;;9.40;1.00;;;;;;5030758;28;20232;-62
2021/03/27 14:06:20;;;;;;;5.40;1.85;;;9.60;1.00;;;;;;5026522;28;20524;-62
2021/03/27 14:09:04;;;;;;;3.47;1.77;;;9.70;99.90;;;;;;5034226;28;20185;-65
2021/03/27 14:12:11;;;;;;;4.60;2.30;;;9.40;99.90;;;;;;5034328;28;20189;-65
2021/03/27 14:15:05;;;;;;;7.25;2.97;;;9.30;99.90;;;;;;5033770;28;20306;-65
2021/03/27 14:18:06;;;;;;;5.63;2.17;;;9.20;99.90;;;;;;5034061;28;20176;-67
2021/03/27 14:20:49;;;;;;;7.55;2.50;;;9.10;99.90;;;;;;5034780;28;20630;-66
2021/03/27 14:23:14;;;;;;;4.40;2.08;;;9.10;99.90;;;;;;5034166;28;20201;-66
2021/03/27 14:26:16;;;;;;;5.40;2.20;;;9.10;99.90;;;;;;5033803;28;20516;-67
2021/03/27 14:28:54;;;;;;;4.70;2.30;;;8.90;99.90;;;;;;5033889;28;20212;-69
2021/03/27 14:31:46;;;;;;;3.28;1.30;;;8.00;25.60;;;;;;5033609;28;20185;-69